Time;durP1;ratioP1;P1;durP2;ratioP2;P2;SDS_P1;SDS_P2;PMS_P1;PMS_P2;Temp;Humidity;BMP_temperature;BMP_pressure;BME280_temperature;BME280_humidity;BME280_pressure;Samples;Min_cycle;Max_cycle;Signal;HPM_P1;HPM_P2
2022/10/10 00:01:35;;;;;;;21.48;3.72;;;7.30;99.90;;;5.88;100.00;101813.34;4917773;29;20031;-82
2022/10/10 00:04:03;;;;;;;15.85;3.15;;;7.30;99.90;;;5.85;100.00;101811.63;4935641;29;20068;-82
2022/10/10 00:06:29;;;;;;;17.20;3.10;;;7.30;99.90;;;5.86;100.00;101807.25;4932717;29;20107;-81
2022/10/10 00:09:04;;;;;;;22.08;3.42;;;7.30;99.90;;;5.86;100.00;101800.25;4933022;29;20040;-81
2022/10/10 00:11:31;;;;;;;13.70;2.78;;;7.30;99.90;;;5.85;100.00;101806.38;4933781;29;20038;-82
2022/10/10 00:13:57;;;;;;;17.75;3.35;;;7.30;99.90;;;5.83;100.00;101802.94;4936673;29;20035;-81
2022/10/10 00:16:30;;;;;;;11.05;3.05;;;7.30;99.90;;;5.82;100.00;101806.41;4934849;29;20028;-81
2022/10/10 00:18:56;;;;;;;15.10;3.08;;;7.30;99.90;;;5.81;100.00;101799.47;4918616;29;20122;-81
2022/10/10 00:21:21;;;;;;;18.40;3.35;;;7.30;99.90;;;5.81;100.00;101801.19;4934431;28;20454;-81
2022/10/10 00:23:47;;;;;;;17.23;2.75;;;7.20;99.90;;;5.81;100.00;101788.09;4934022;28;20032;-80
2022/10/10 00:26:13;;;;;;;12.88;3.35;;;7.30;99.90;;;5.83;100.00;101792.47;4920199;29;20687;-81
2022/10/10 00:28:44;;;;;;;16.38;4.13;;;7.30;99.90;;;5.86;100.00;101781.97;4933527;29;20039;-81
2022/10/10 00:31:10;;;;;;;12.63;3.25;;;7.30;99.90;;;5.87;100.00;101781.06;4933988;29;20043;-82
2022/10/10 00:33:36;;;;;;;20.45;3.75;;;7.30;99.90;;;5.89;100.00;101781.06;4917698;29;20039;-81
2022/10/10 00:36:03;;;;;;;14.80;2.60;;;7.30;99.90;;;5.89;100.00;101776.69;4917427;29;20024;-82
2022/10/10 00:38:28;;;;;;;14.27;3.65;;;7.30;99.90;;;5.92;100.00;101768.84;4950975;28;20032;-82
2022/10/10 00:41:00;;;;;;;15.82;3.58;;;7.30;99.90;;;5.92;100.00;101765.38;4949933;28;20038;-81
2022/10/10 00:43:28;;;;;;;12.50;3.35;;;7.30;99.90;;;5.87;100.00;101765.38;4916843;29;20059;-82
2022/10/10 00:45:54;;;;;;;20.38;3.75;;;7.30;99.90;;;5.86;100.00;101754.97;4902650;29;20373;-81
2022/10/10 00:48:44;;;;;;;14.63;2.75;;;7.30;99.90;;;5.81;100.00;101744.56;4920848;29;20034;-81
2022/10/10 00:51:16;;;;;;;11.80;3.00;;;7.30;99.90;;;5.79;100.00;101748.94;4927929;29;20040;-82
2022/10/10 00:53:55;;;;;;;10.85;2.92;;;7.20;99.90;;;5.78;100.00;101744.59;4920254;29;20036;-81
2022/10/10 00:56:28;;;;;;;15.57;3.50;;;7.20;99.90;;;5.76;100.00;101744.59;4918167;29;20075;-81
2022/10/10 00:58:57;;;;;;;17.63;3.60;;;7.20;99.90;;;5.75;100.00;101739.41;4952257;28;20119;-81
2022/10/10 01:01:22;;;;;;;21.23;3.72;;;7.20;99.90;;;5.79;100.00;101742.81;4919791;29;20027;-81
2022/10/10 01:03:48;;;;;;;14.02;3.35;;;7.20;99.90;;;5.72;100.00;101736.81;4933258;29;20436;-81
2022/10/10 01:06:19;;;;;;;20.42;3.28;;;7.20;99.90;;;5.72;100.00;101734.19;4902424;29;20035;-81
2022/10/10 01:08:45;;;;;;;20.60;3.20;;;7.20;99.90;;;5.70;100.00;101725.50;4918283;29;20024;-82
2022/10/10 01:11:38;;;;;;;10.65;2.83;;;7.20;99.90;;;5.70;100.00;101723.78;4919537;28;20146;-82
2022/10/10 01:14:23;;;;;;;12.88;3.42;;;7.10;99.90;;;5.69;100.00;101715.94;4938997;29;20094;-82
2022/10/10 01:17:38;;;;;;;21.60;3.83;;;7.10;99.90;;;5.64;100.00;101713.38;4939136;29;20040;-81
2022/10/10 01:20:28;;;;;;;10.82;3.15;;;7.10;99.90;;;5.61;100.00;101712.53;4935859;29;20040;-81
2022/10/10 01:23:39;;;;;;;10.88;3.55;;;7.00;99.90;;;5.51;100.00;101707.41;4923422;29;20075;-82
2022/10/10 01:26:11;;;;;;;9.15;3.20;;;7.00;99.90;;;5.54;100.00;101702.13;4937542;29;20036;-81
2022/10/10 01:29:01;;;;;;;12.93;3.20;;;7.00;99.90;;;5.58;100.00;101694.28;4938366;29;20709;-80
2022/10/10 01:31:28;;;;;;;12.85;3.53;;;7.00;99.90;;;5.57;100.00;101689.94;4936581;29;20111;-81
2022/10/10 01:34:09;;;;;;;17.50;3.50;;;7.00;99.90;;;5.64;100.00;101692.47;4922610;29;20036;-81
2022/10/10 01:37:00;;;;;;;18.70;3.40;;;7.00;99.90;;;5.64;100.00;101689.00;4921425;29;20028;-82
2022/10/10 01:39:40;;;;;;;12.30;3.17;;;7.10;99.90;;;5.64;100.00;101687.25;4921779;29;20036;-81
2022/10/10 01:42:27;;;;;;;13.80;3.03;;;7.10;99.90;;;5.66;100.00;101681.97;4904915;29;20051;-81
2022/10/10 01:44:53;;;;;;;16.98;3.33;;;7.10;99.90;;;5.63;100.00;101679.41;4923792;29;20040;-81
2022/10/10 01:47:23;;;;;;;15.25;3.63;;;7.10;99.90;;;5.64;100.00;101673.31;4938790;29;20582;-81
2022/10/10 01:49:53;;;;;;;13.18;3.55;;;7.00;99.90;;;5.59;100.00;101672.50;4935898;29;20036;-82
2022/10/10 01:52:44;;;;;;;11.73;3.33;;;7.00;99.90;;;5.58;100.00;101671.63;4934973;29;20039;-81
2022/10/10 01:55:27;;;;;;;18.17;3.65;;;7.00;99.90;;;5.53;100.00;101660.38;4936834;29;20036;-81
2022/10/10 01:58:36;;;;;;;16.52;3.55;;;6.90;99.90;;;5.47;100.00;101674.34;4936170;29;20390;-81
2022/10/10 02:01:44;;;;;;;15.48;3.30;;;6.90;99.90;;;5.40;100.00;101662.25;4936755;29;20040;-82
2022/10/10 02:04:18;;;;;;;;;;;6.90;99.90;;;5.29;100.00;101659.75;4936838;29;20063;-81
2022/10/10 02:06:56;;;;;;;14.82;3.35;;;6.80;99.90;;;5.23;100.00;101656.34;4936493;29;20379;-81
2022/10/10 02:09:34;;;;;;;18.98;3.63;;;6.70;99.90;;;5.24;100.00;101663.28;4922025;29;20035;-81
2022/10/10 02:12:02;;;;;;;26.42;4.97;;;6.70;99.90;;;5.18;100.00;101645.03;4949398;28;20052;-81
2022/10/10 02:14:37;;;;;;;17.88;4.07;;;6.70;99.90;;;5.18;100.00;101660.72;4921373;29;20531;-80
2022/10/10 02:17:06;;;;;;;15.05;3.72;;;6.60;99.90;;;5.18;100.00;101652.88;4918427;29;20035;-81
2022/10/10 02:19:33;;;;;;;18.17;3.42;;;6.60;99.90;;;5.16;100.00;101649.41;4934244;29;20027;-82
2022/10/10 02:22:07;;;;;;;16.27;3.50;;;6.60;99.90;;;5.12;100.00;101646.00;4922310;29;20036;-80
2022/10/10 02:24:33;;;;;;;15.82;3.85;;;6.60;99.90;;;5.11;100.00;101641.63;4920805;29;20032;-81
2022/10/10 02:27:17;;;;;;;17.10;3.58;;;6.60;99.90;;;5.09;100.00;101636.41;4904261;29;20389;-81
2022/10/10 02:29:49;;;;;;;13.10;3.40;;;6.60;99.90;;;5.12;100.00;101632.94;4918765;29;20044;-81
2022/10/10 02:32:33;;;;;;;17.75;3.70;;;6.60;99.90;;;5.09;100.00;101639.03;4921933;29;20027;-81
2022/10/10 02:35:26;;;;;;;22.20;3.90;;;6.50;99.90;;;5.06;100.00;101630.38;4938222;29;20118;-81
2022/10/10 02:37:53;;;;;;;16.80;3.50;;;6.50;99.90;;;5.03;100.00;101631.28;4934345;29;20122;-81
2022/10/10 02:40:29;;;;;;;14.93;3.20;;;6.50;99.90;;;5.01;100.00;101624.31;4917428;29;20041;-81
2022/10/10 02:42:58;;;;;;;13.02;3.13;;;6.40;99.90;;;4.96;100.00;101619.13;4912474;29;20038;-81
2022/10/10 02:45:24;;;;;;;16.35;3.33;;;6.50;99.90;;;4.93;100.00;101621.78;4921757;29;20042;-80
2022/10/10 02:47:55;;;;;;;10.80;3.13;;;6.40;99.90;;;4.90;100.00;101627.03;4950133;28;20099;-81
2022/10/10 02:50:21;;;;;;;19.30;3.42;;;6.40;99.90;;;4.89;100.00;101627.91;4917692;29;20082;-81
2022/10/10 02:52:47;;;;;;;20.13;3.30;;;6.40;99.90;;;4.88;100.00;101626.16;4933343;29;20036;-81
2022/10/10 02:55:13;;;;;;;11.95;3.33;;;6.40;99.90;;;4.86;100.00;101617.47;4920150;29;20035;-81
2022/10/10 02:57:39;;;;;;;15.82;3.85;;;6.30;99.90;;;4.82;100.00;101619.28;4937606;29;20105;-82
2022/10/10 03:00:08;;;;;;;11.23;3.90;;;6.30;99.90;;;4.70;100.00;101609.78;4935666;29;20564;-81
2022/10/10 03:02:36;;;;;;;13.30;4.50;;;6.20;99.90;;;4.64;100.00;101617.66;4934879;29;20035;-81
2022/10/10 03:05:02;;;;;;;15.73;3.90;;;6.10;99.90;;;4.55;100.00;101607.31;4934682;29;20038;-82
2022/10/10 03:07:28;;;;;;;18.02;4.05;;;6.10;99.90;;;4.49;100.00;101616.06;4935896;29;20548;-81
2022/10/10 03:09:54;;;;;;;15.73;3.70;;;;;;;4.45;100.00;101608.25;4937546;29;20119;-81
2022/10/10 03:12:20;;;;;;;15.80;3.33;;;5.90;99.90;;;4.42;100.00;101605.66;4940790;28;20393;-78
2022/10/10 03:14:45;;;;;;;16.50;3.95;;;5.90;99.90;;;4.33;100.00;101611.81;4919317;29;20043;-80
2022/10/10 03:17:20;;;;;;;13.15;4.10;;;5.80;99.90;;;4.29;100.00;101607.50;4933886;29;20036;-81
2022/10/10 03:19:46;;;;;;;15.25;3.78;;;5.70;99.90;;;4.26;100.00;101604.91;4944157;23;20063;-84
2022/10/10 03:22:11;;;;;;;16.25;3.92;;;5.70;99.90;;;4.13;100.00;101606.72;4975775;28;20476;-83
2022/10/10 03:24:37;;;;;;;24.63;4.05;;;5.60;99.90;;;4.04;100.00;101598.94;4966716;28;20023;-84
2022/10/10 03:27:06;;;;;;;15.98;3.97;;;5.60;99.90;;;3.97;100.00;101592.91;4981697;28;20051;-83
2022/10/10 03:29:32;;;;;;;22.42;4.15;;;5.50;99.90;;;3.84;100.00;101584.28;4947761;28;21374;-83
2022/10/10 03:31:57;;;;;;;12.52;4.13;;;5.50;99.90;;;3.84;100.00;101589.50;4990372;28;20109;-82
2022/10/10 03:34:23;;;;;;;53.58;6.07;;;5.40;99.90;;;3.81;100.00;101586.06;4988772;28;20038;-83
2022/10/10 03:36:49;;;;;;;16.55;3.80;;;5.40;99.90;;;3.77;100.00;101579.97;4978321;28;20022;-82
2022/10/10 03:39:15;;;;;;;13.98;4.28;;;5.40;99.90;;;3.79;100.00;101583.44;4988880;28;20054;-83
2022/10/10 03:41:51;;;;;;;16.20;4.50;;;5.30;99.90;;;3.80;100.00;101574.78;4977424;28;20753;-83
2022/10/10 03:44:17;;;;;;;16.92;4.10;;;5.30;99.90;;;3.82;100.00;101578.25;4965110;28;20033;-84
2022/10/10 03:46:42;;;;;;;14.90;4.05;;;5.40;99.90;;;3.84;100.00;101571.25;4965767;28;20035;-83
2022/10/10 03:49:08;;;;;;;14.35;3.75;;;5.40;99.90;;;3.93;100.00;101579.91;4986022;28;20027;-84
2022/10/10 03:51:41;;;;;;;18.58;3.78;;;5.50;99.90;;;3.95;100.00;101570.34;4961363;28;20039;-82
2022/10/10 03:54:07;;;;;;;16.05;3.88;;;5.40;99.90;;;3.98;100.00;101570.34;4987244;28;20430;-82
2022/10/10 03:56:33;;;;;;;17.65;3.30;;;5.50;99.90;;;4.02;100.00;101565.09;4963942;28;20022;-84
2022/10/10 03:58:59;;;;;;;15.70;4.15;;;5.60;99.90;;;4.02;100.00;101564.25;4977244;28;20415;-83
2022/10/10 04:01:28;;;;;;;22.80;3.80;;;5.50;99.90;;;4.02;100.00;101567.69;4944275;28;20086;-83
2022/10/10 04:03:57;;;;;;;26.95;5.70;;;5.50;99.90;;;4.02;100.00;101562.50;4943838;28;20026;-83
2022/10/10 04:06:23;;;;;;;17.67;4.20;;;5.60;99.90;;;4.08;100.00;101558.97;4944873;28;20027;-84
2022/10/10 04:08:49;;;;;;;18.08;3.75;;;5.60;99.90;;;4.06;100.00;101550.28;4959505;28;20053;-84
2022/10/10 04:11:14;;;;;;;16.10;3.90;;;5.60;99.90;;;4.06;100.00;101545.97;4966486;28;20518;-84
2022/10/10 04:13:40;;;;;;;18.70;4.22;;;5.60;99.90;;;4.11;100.00;101544.19;4941936;28;20112;-84
2022/10/10 04:16:15;;;;;;;12.32;3.40;;;5.60;99.90;;;4.13;100.00;101538.97;4966789;28;20498;-81
2022/10/10 04:18:42;;;;;;;17.77;4.17;;;;;;;4.12;100.00;101532.00;4960277;28;20031;-85
2022/10/10 04:21:08;;;;;;;18.92;4.50;;;5.60;99.90;;;4.11;100.00;101533.75;4985253;28;20038;-84
2022/10/10 04:23:40;;;;;;;14.48;4.00;;;5.60;99.90;;;4.09;100.00;101525.06;4946539;28;20045;-82
2022/10/10 04:26:06;;;;;;;18.88;4.55;;;;;;;4.10;100.00;101521.59;4981820;28;20055;-83
2022/10/10 04:28:32;;;;;;;21.17;4.45;;;5.70;99.90;;;4.13;100.00;101515.50;4958321;28;20114;-85
2022/10/10 04:31:01;;;;;;;14.77;4.70;;;5.70;99.90;;;4.18;100.00;101521.53;4939741;28;20534;-84
2022/10/10 04:33:32;;;;;;;15.43;4.03;;;;;;;4.15;100.00;101511.16;4940695;28;20031;-82
2022/10/10 04:36:01;;;;;;;24.08;4.60;;;5.70;99.90;;;4.21;100.00;101510.22;4972884;28;20073;-84
2022/10/10 04:38:36;;;;;;;19.95;4.47;;;5.70;99.90;;;4.25;100.00;101504.97;4945735;28;20030;-82
2022/10/10 04:41:05;;;;;;;15.75;4.15;;;5.70;99.90;;;4.26;100.00;101488.47;4954921;28;20090;-85
2022/10/10 04:43:31;;;;;;;17.50;4.00;;;5.80;99.90;;;4.32;100.00;101495.38;4957780;28;20491;-85
2022/10/10 04:45:57;;;;;;;16.90;4.40;;;5.80;99.90;;;4.36;100.00;101481.41;4971844;28;20136;-83
2022/10/10 04:48:43;;;;;;;16.00;4.07;;;;;;;4.42;100.00;101481.34;4973520;28;20093;-84
2022/10/10 04:51:17;;;;;;;13.18;3.58;;;5.90;99.90;;;4.41;100.00;101479.63;4966807;28;20031;-83
2022/10/10 04:53:47;;;;;;;21.75;3.90;;;5.90;99.90;;;4.44;100.00;101476.13;4937771;28;20085;-84
2022/10/10 04:56:14;;;;;;;13.48;3.83;;;;;;;4.46;100.00;101477.84;4953962;28;20037;-84
2022/10/10 04:58:43;;;;;;;18.63;3.72;;;6.00;99.90;;;4.50;100.00;101473.47;4968024;28;20062;-84
2022/10/10 05:01:16;;;;;;;18.08;7.50;;;6.00;99.90;;;4.51;100.00;101475.19;4992400;28;20066;-85
2022/10/10 05:03:45;;;;;;;22.52;9.07;;;6.00;99.90;;;4.49;100.00;101466.50;4960187;28;20023;-85
2022/10/10 05:06:13;;;;;;;52.22;18.77;;;6.00;99.90;;;4.46;100.00;101458.72;4943106;28;20094;-85
2022/10/10 05:08:46;;;;;;;44.85;16.02;;;;;;;4.50;100.00;101465.66;4946308;28;20064;-84
2022/10/10 05:11:12;;;;;;;54.97;18.65;;;6.00;99.90;;;4.47;100.00;101457.84;4959985;28;20042;-85
2022/10/10 05:13:48;;;;;;;;;;;;;;;;;;;;;
2022/10/10 05:16:15;;;;;;;16.13;6.63;;;6.00;99.90;;;4.51;100.00;101455.22;4985143;28;20422;-85
2022/10/10 05:19:01;;;;;;;16.42;4.60;;;6.10;99.90;;;4.55;100.00;101455.16;4946732;28;20035;-84
2022/10/10 05:21:36;;;;;;;19.60;4.00;;;6.00;99.90;;;4.57;100.00;101442.97;4953847;28;20518;-85
2022/10/10 05:24:13;;;;;;;17.23;3.85;;;;;;;4.63;100.00;101442.91;4975643;28;20035;-85
2022/10/10 05:26:54;;;;;;;13.30;3.50;;;;;;;4.65;100.00;101436.78;4953400;28;20380;-85
2022/10/10 05:29:37;;;;;;;12.73;3.83;;;6.20;99.90;;;4.70;100.00;101440.22;4954142;28;20034;-83
2022/10/10 05:32:13;;;;;;;10.60;3.92;;;;;;;4.72;100.00;101435.84;4955934;28;20031;-84
2022/10/10 05:34:57;;;;;;;16.20;3.35;;;;;;;4.73;100.00;101434.13;4972254;28;20043;-85
2022/10/10 05:37:23;;;;;;;16.40;3.72;;;6.20;99.90;;;4.82;100.00;101435.75;4955597;28;20050;-85
2022/10/10 05:39:49;;;;;;;17.17;3.72;;;6.20;99.90;;;4.82;100.00;101433.16;4940482;28;20418;-85
2022/10/10 05:42:24;;;;;;;14.50;3.40;;;6.30;99.90;;;4.90;100.00;101432.19;4970988;28;20142;-85
2022/10/10 05:44:52;;;;;;;14.70;3.28;;;;;;;4.93;100.00;101423.44;4964919;28;20566;-85
2022/10/10 05:47:37;;;;;;;;;;;;;;;;;;;;;
2022/10/10 05:50:22;;;;;;;11.70;3.95;;;;;;;5.03;100.00;101425.06;4957350;23;20393;-86
2022/10/10 05:52:48;;;;;;;16.38;2.72;;;6.50;99.90;;;5.11;100.00;101425.81;4933802;28;20066;-86
2022/10/10 05:55:14;;;;;;;12.82;3.35;;;;;;;5.18;100.00;101417.91;4932474;28;20619;-86
2022/10/10 05:58:06;;;;;;;8.52;3.22;;;;;;;5.25;100.00;101407.38;4932286;29;20040;-86
2022/10/10 06:00:35;;;;;;;12.60;3.40;;;6.70;99.90;;;5.31;100.00;101416.84;4966560;28;20030;-86
2022/10/10 06:03:27;;;;;;;13.88;3.25;;;6.70;99.90;;;5.38;100.00;101410.69;4961739;28;20035;-86
2022/10/10 06:06:27;;;;;;;18.33;4.20;;;6.70;99.90;;;5.47;100.00;101404.47;4913194;29;20087;-86
2022/10/10 06:09:07;;;;;;;14.73;3.55;;;6.80;99.90;;;5.51;100.00;101407.00;4933219;29;20031;-86
2022/10/10 06:11:32;;;;;;;17.30;3.83;;;6.90;99.90;;;5.55;100.00;101406.06;4940700;29;20139;-86
2022/10/10 06:14:24;;;;;;;14.15;3.40;;;;;;;5.70;100.00;101396.25;4939401;28;20123;-86
2022/10/10 06:17:08;;;;;;;11.48;3.40;;;;;;;5.74;100.00;101400.53;4949438;28;20086;-86
2022/10/10 06:19:45;;;;;;;13.85;3.40;;;;;;;5.87;100.00;101411.66;4952085;28;20512;-86
2022/10/10 06:23:25;;;;;;;;;;;;;;;;;;;;;
2022/10/10 06:26:56;;;;;;;20.48;3.97;;;7.80;99.90;;;13.28;85.21;101429.00;4936826;28;20036;-86
2022/10/10 06:33:06;;;;;;;14.57;3.20;;;10.40;99.90;;;13.16;64.92;101389.84;4950437;29;20054;-86
2022/10/10 06:39:47;;;;;;;18.75;3.10;;;12.20;99.90;;;17.87;60.35;101432.56;4944858;29;20074;-87
2022/10/10 06:42:13;;;;;;;10.18;2.90;;;;;;;20.34;53.09;101419.44;4916384;29;20027;-87
2022/10/10 06:44:50;;;;;;;13.68;2.95;;;;;;;21.88;48.89;101421.47;4923322;29;20046;-87
2022/10/10 06:47:16;;;;;;;11.93;2.95;;;;;;;22.19;47.64;101432.28;4913884;29;20038;-88
2022/10/10 06:49:57;;;;;;;10.60;3.03;;;17.00;99.90;;;22.82;45.46;101427.75;4925112;29;20032;-88
2022/10/10 06:59:48;;;;;;;11.00;2.53;;;19.10;99.90;;;23.34;43.54;101450.00;4964349;23;20146;-88
2022/10/10 07:02:27;;;;;;;11.48;3.30;;;19.20;99.90;;;23.37;43.69;101459.66;4925036;29;20047;-87
2022/10/10 07:06:06;;;;;;;10.02;2.97;;;19.50;99.90;;;23.11;42.57;101451.25;4921336;29;20023;-87
2022/10/10 07:09:07;;;;;;;9.75;3.05;;;;;;;23.16;43.26;101458.88;4938812;28;20043;-88
2022/10/10 07:11:46;;;;;;;11.98;3.13;;;;;;;23.42;42.77;101457.41;4924241;29;20099;-88
2022/10/10 07:14:26;;;;;;;13.15;3.30;;;;;;;23.08;42.93;101460.41;4927713;29;20040;-87
2022/10/10 07:20:16;;;;;;;11.63;3.25;;;20.30;97.70;;;22.25;44.53;101447.91;5134197;23;20108;-88
2022/10/10 07:22:58;;;;;;;8.38;2.83;;;;;;;21.54;44.85;101447.53;4952385;28;20058;-87
2022/10/10 07:35:26;;;;;;;;;;;20.90;96.80;;;22.03;44.87;101459.53;4891526;29;20073;-88
2022/10/10 07:38:27;;;;;;;11.85;3.22;;;21.20;97.00;;;21.72;44.69;101448.66;4880426;29;20299;-88
2022/10/10 07:41:19;;;;;;;14.20;12.75;;;21.50;97.40;;;22.34;44.69;101440.91;5091112;23;20055;-88
2022/10/10 07:43:45;;;;;;;8.63;3.20;;;21.70;95.80;;;21.68;45.68;101434.69;4930906;29;20404;-88
2022/10/10 07:46:38;;;;;;;;;;;;;;;;;;;;;
2022/10/10 07:49:35;;;;;;;8.90;3.05;;;;;;;21.05;46.17;101444.25;4941217;23;20940;-92
2022/10/10 07:52:17;;;;;;;9.40;2.83;;;21.60;96.40;;;20.73;46.78;101433.41;4940845;28;20039;-87
2022/10/10 07:55:46;;;;;;;8.93;3.05;;;21.80;96.30;;;21.25;45.94;101442.63;4955710;28;20038;-88
2022/10/10 08:04:36;;;;;;;9.85;2.90;;;22.40;95.10;;;20.70;46.45;101429.16;4951332;28;20034;-88
2022/10/10 08:07:18;;;;;;;8.10;2.92;;;22.20;94.40;;;20.59;47.17;101424.63;4943246;28;20030;-88
2022/10/10 08:16:56;;;;;;;10.63;2.88;;;21.80;95.70;;;20.00;48.38;101417.53;4975704;28;20038;-86
2022/10/10 08:19:37;;;;;;;9.32;3.65;;;;;;;19.50;48.85;101410.56;4955942;28;20022;-87
2022/10/10 08:22:46;;;;;;;10.02;2.88;;;21.50;95.30;;;19.56;48.20;101402.94;4955034;28;20496;-87
2022/10/10 08:25:27;;;;;;;9.48;3.40;;;;;;;19.21;49.57;101394.88;4863840;29;20593;-86
2022/10/10 08:28:37;;;;;;;9.23;3.60;;;21.10;95.00;;;18.54;50.26;101379.13;4879418;29;20095;-86
2022/10/10 08:34:16;;;;;;;8.77;3.35;;;20.70;96.20;;;19.08;50.87;101376.22;4961562;28;20170;-87
2022/10/10 08:36:54;;;;;;;9.85;3.08;;;;;;;18.75;50.83;101368.78;4962351;28;20495;-87
2022/10/10 08:39:21;;;;;;;8.93;3.30;;;;;;;18.53;51.70;101356.97;4954059;28;20047;-86
2022/10/10 08:41:59;;;;;;;8.98;3.20;;;;;;;18.78;51.62;101360.59;4974994;28;20073;-87
2022/10/10 08:48:06;;;;;;;10.15;3.40;;;;;;;18.67;51.90;101347.13;4980270;28;20046;-87
2022/10/10 08:51:16;;;;;;;8.07;3.38;;;19.80;97.50;;;18.13;51.42;101341.06;4958975;23;20041;-87
2022/10/10 08:54:18;;;;;;;10.85;3.40;;;19.40;98.00;;;17.99;51.99;101339.34;4935654;29;20040;-87
2022/10/10 09:00:26;;;;;;;9.45;3.28;;;;;;;18.06;52.70;101331.78;4953607;28;20114;-86
2022/10/10 09:03:48;;;;;;;7.25;2.97;;;19.00;99.10;;;18.11;52.62;101313.66;4962173;28;20035;-87
2022/10/10 09:13:11;;;;;;;10.38;3.03;;;18.30;99.50;;;17.06;54.68;101300.25;4950721;28;20047;-90
2022/10/10 09:19:35;;;;;;;12.55;3.95;;;;;;;16.02;57.73;101300.47;4892888;29;20045;-90
2022/10/10 09:23:36;;;;;;;12.20;3.28;;;16.80;99.90;;;15.79;58.86;101297.41;4886336;29;20083;-88
2022/10/10 09:26:46;;;;;;;1.08;0.90;;;16.40;99.90;;;15.06;60.91;101293.66;4778180;30;20062;-86
2022/10/10 09:33:57;;;;;;;8.80;3.30;;;15.60;99.90;;;13.98;63.09;101272.97;4893611;29;20066;-89
2022/10/10 09:40:26;;;;;;;16.63;3.45;;;14.80;99.90;;;13.06;66.80;101253.72;4988903;23;20424;-88
2022/10/10 09:50:17;;;;;;;9.55;3.58;;;;;;;12.50;69.60;101266.94;4971481;28;20062;-88
2022/10/10 09:57:14;;;;;;;14.63;3.60;;;13.90;99.90;;;13.02;69.61;101238.94;4972528;28;20050;-88
2022/10/10 09:59:50;;;;;;;9.30;3.30;;;;;;;13.16;67.68;101233.84;4992209;28;20134;-88
2022/10/10 10:02:26;;;;;;;10.90;3.10;;;14.20;99.90;;;13.34;67.35;101235.59;4960599;28;20051;-82
2022/10/10 10:04:52;;;;;;;;;;;14.10;99.90;;;13.23;67.02;101234.41;4941864;28;20114;-84
2022/10/10 10:07:35;;;;;;;10.10;3.33;;;14.40;99.90;;;13.49;67.05;101233.13;4960378;28;19921;-82
2022/10/10 10:10:26;;;;;;;9.48;3.20;;;14.60;99.90;;;13.81;67.10;101239.41;4957754;28;20582;-83
2022/10/10 10:12:56;;;;;;;8.90;3.10;;;14.70;99.90;;;13.88;66.85;101235.50;4938409;28;20074;-82
2022/10/10 10:15:32;;;;;;;20.92;3.58;;;14.80;99.90;;;14.05;66.09;101231.97;4951098;28;20055;-82
2022/10/10 10:18:26;;;;;;;9.52;3.10;;;15.00;99.90;;;14.24;65.53;101231.00;4952697;28;20074;-83
2022/10/10 10:21:24;;;;;;;13.18;3.25;;;15.10;99.90;;;14.45;65.61;101229.84;4972405;28;20038;-83
2022/10/10 10:24:20;;;;;;;10.75;3.00;;;15.30;99.90;;;14.59;65.19;101228.25;4937934;28;20129;-81
2022/10/10 10:26:47;;;;;;;7.95;2.88;;;15.40;99.90;;;14.68;65.13;101212.66;4970167;28;20058;-82
2022/10/10 10:29:31;;;;;;;8.18;3.03;;;15.40;99.90;;;14.70;64.98;101217.91;4935357;28;20194;-83
2022/10/10 10:32:30;;;;;;;9.57;3.13;;;15.70;99.90;;;15.15;64.14;101211.75;4957411;28;20054;-83
2022/10/10 10:35:34;;;;;;;9.93;3.47;;;16.00;99.90;;;15.48;62.90;101201.91;4962133;28;20047;-83
2022/10/10 10:38:22;;;;;;;11.75;3.05;;;16.10;99.90;;;15.74;61.59;101206.56;4953649;28;20526;-83
2022/10/10 10:41:41;;;;;;;13.93;2.83;;;16.50;99.90;;;15.69;61.27;101192.66;4960013;28;20094;-83
2022/10/10 10:44:34;;;;;;;13.77;2.95;;;16.50;99.90;;;15.48;61.34;101188.63;4932876;28;20425;-82
2022/10/10 10:47:42;;;;;;;10.07;2.95;;;16.40;99.90;;;15.45;61.47;101178.22;4956052;28;20027;-81
2022/10/10 10:50:59;;;;;;;10.18;2.72;;;16.30;99.90;;;15.25;60.94;101174.94;4964592;28;20046;-84
2022/10/10 10:54:07;;;;;;;6.55;2.55;;;16.20;99.90;;;15.04;61.67;101178.88;4949235;28;20102;-83
2022/10/10 10:56:46;;;;;;;7.00;2.78;;;15.90;99.90;;;14.69;62.43;101171.16;4957852;28;20042;-82
2022/10/10 10:59:43;;;;;;;8.68;2.80;;;15.80;99.90;;;14.54;62.23;101170.19;4965187;28;20023;-83
2022/10/10 11:02:14;;;;;;;22.73;4.13;;;15.60;99.90;;;14.53;63.27;101158.69;4960549;28;20144;-82
2022/10/10 11:05:28;;;;;;;14.93;3.67;;;15.60;99.90;;;14.47;63.34;101153.78;4962437;28;20022;-83
2022/10/10 11:08:22;;;;;;;18.50;3.13;;;15.50;99.90;;;14.41;63.85;101158.56;4965925;28;20034;-83
2022/10/10 11:11:09;;;;;;;12.38;3.55;;;15.40;99.90;;;14.22;63.92;101153.41;4977116;28;20098;-83
2022/10/10 11:14:02;;;;;;;8.30;2.90;;;15.40;99.90;;;14.44;64.26;101155.72;4976139;28;20027;-83
2022/10/10 11:16:45;;;;;;;14.90;3.55;;;15.40;99.90;;;14.44;64.46;101145.97;4976402;28;20098;-83
2022/10/10 11:19:18;;;;;;;16.60;4.00;;;15.40;99.90;;;14.43;64.25;101154.03;4960108;28;20031;-81
2022/10/10 11:22:13;;;;;;;10.57;3.95;;;15.40;99.90;;;14.37;64.52;101139.31;4958193;28;20459;-83
2022/10/10 11:24:55;;;;;;;7.53;3.33;;;15.40;99.90;;;14.42;64.65;101131.97;4949684;28;20050;-83
2022/10/10 11:27:39;;;;;;;11.98;3.70;;;15.40;99.90;;;14.44;64.43;101126.59;4968185;28;20042;-81
2022/10/10 11:30:30;;;;;;;10.48;3.47;;;15.30;99.90;;;14.44;65.84;101123.94;4966293;28;20650;-81
2022/10/10 11:33:25;;;;;;;9.68;3.17;;;15.40;99.90;;;14.52;65.23;101127.00;4950215;23;20044;-80
2022/10/10 11:36:17;;;;;;;12.07;3.38;;;15.40;99.90;;;14.46;65.00;101122.06;4937774;28;20075;-80
2022/10/10 11:39:11;;;;;;;9.15;3.20;;;15.40;99.90;;;14.41;64.89;101127.63;4908256;29;20028;-80
2022/10/10 11:42:29;;;;;;;18.95;3.78;;;15.30;99.90;;;14.32;65.47;101120.19;4920981;29;20035;-80
2022/10/10 11:45:12;;;;;;;13.90;3.30;;;15.30;99.90;;;14.39;65.89;101129.50;4939474;28;20040;-80
2022/10/10 11:47:51;;;;;;;10.02;3.17;;;15.40;99.90;;;14.42;65.68;101116.06;4938148;28;20447;-80
2022/10/10 11:50:29;;;;;;;12.18;3.00;;;15.40;99.90;;;14.45;65.45;101107.97;4939109;28;20039;-81
2022/10/10 11:53:17;;;;;;;11.00;3.47;;;15.40;99.90;;;14.51;65.95;101104.09;4937272;28;20059;-80
2022/10/10 11:56:10;;;;;;;7.13;3.00;;;15.40;99.90;;;14.42;65.63;101097.50;4942536;28;20035;-80
2022/10/10 11:58:49;;;;;;;18.48;3.50;;;15.50;99.90;;;14.49;65.62;101088.31;4939459;28;20020;-80
2022/10/10 12:01:27;;;;;;;8.27;2.92;;;15.50;99.90;;;14.48;65.97;101091.88;4936790;28;20028;-80
2022/10/10 12:03:56;;;;;;;14.00;3.00;;;15.50;99.90;;;14.39;65.68;101092.41;4929397;29;20104;-81
2022/10/10 12:06:53;;;;;;;13.38;3.22;;;15.50;99.90;;;14.50;65.94;101090.00;4922389;29;20027;-80
2022/10/10 12:09:37;;;;;;;9.95;3.13;;;15.40;99.90;;;14.47;67.05;101091.94;4940117;28;20051;-80
2022/10/10 12:12:21;;;;;;;10.70;2.95;;;15.50;99.90;;;14.56;66.66;101087.03;4929292;28;20030;-79
2022/10/10 12:14:53;;;;;;;11.00;3.55;;;15.50;99.90;;;14.63;66.70;101105.22;4933939;28;20459;-79
2022/10/10 12:17:31;;;;;;;6.10;2.83;;;15.60;99.90;;;14.65;68.05;101106.00;4922486;29;20484;-79
2022/10/10 12:20:13;;;;;;;7.45;3.50;;;15.60;99.90;;;14.73;68.14;101101.97;4933671;28;20038;-80
2022/10/10 12:22:49;;;;;;;9.82;3.45;;;15.70;99.90;;;14.82;67.61;101105.88;4939527;28;20036;-81
2022/10/10 12:25:44;;;;;;;7.65;3.25;;;15.80;99.90;;;14.90;67.42;101086.84;4939823;29;20027;-80
2022/10/10 12:28:12;;;;;;;10.07;3.20;;;15.90;99.90;;;15.09;66.67;101087.47;4947892;28;20031;-79
2022/10/10 12:30:56;;;;;;;10.63;3.22;;;16.00;99.90;;;15.32;67.10;101087.88;4930622;29;20032;-80
2022/10/10 12:33:25;;;;;;;8.57;2.90;;;16.10;99.90;;;15.36;66.89;101090.25;4945619;28;20039;-80
2022/10/10 12:35:52;;;;;;;7.60;2.95;;;16.30;99.90;;;15.56;66.77;101088.19;4946051;28;20060;-80
2022/10/10 12:38:24;;;;;;;8.50;2.65;;;16.40;99.90;;;15.70;65.17;101085.53;4937959;28;20087;-80